sensor_id;sensor_type;location;lat;lon;timestamp;P1;durP1;ratioP1;P2;durP2;ratioP2
19105;SDS011;9685;54.338;18.672;2023-08-31T00:01:31;3.97;;;1.73;;
19105;SDS011;9685;54.338;18.672;2023-08-31T00:03:58;1.80;;;1.70;;
19105;SDS011;9685;54.338;18.672;2023-08-31T00:06:25;2.07;;;1.80;;
19105;SDS011;9685;54.338;18.672;2023-08-31T00:08:52;1.70;;;1.60;;
19105;SDS011;9685;54.338;18.672;2023-08-31T00:11:19;2.03;;;1.70;;
19105;SDS011;9685;54.338;18.672;2023-08-31T00:13:46;2.10;;;1.60;;
19105;SDS011;9685;54.338;18.672;2023-08-31T00:16:13;1.67;;;1.53;;
19105;SDS011;9685;54.338;18.672;2023-08-31T00:18:41;2.20;;;1.60;;
19105;SDS011;9685;54.338;18.672;2023-08-31T00:21:10;1.73;;;1.63;;
19105;SDS011;9685;54.338;18.672;2023-08-31T00:23:37;1.70;;;1.60;;
19105;SDS011;9685;54.338;18.672;2023-08-31T00:26:04;1.33;;;1.23;;
19105;SDS011;9685;54.338;18.672;2023-08-31T00:28:32;1.50;;;1.40;;
19105;SDS011;9685;54.338;18.672;2023-08-31T00:31:00;1.60;;;1.50;;
19105;SDS011;9685;54.338;18.672;2023-08-31T00:33:29;1.50;;;1.40;;
19105;SDS011;9685;54.338;18.672;2023-08-31T00:36:00;1.57;;;1.47;;
19105;SDS011;9685;54.338;18.672;2023-08-31T00:38:28;1.60;;;1.50;;
19105;SDS011;9685;54.338;18.672;2023-08-31T00:40:55;1.70;;;1.40;;
19105;SDS011;9685;54.338;18.672;2023-08-31T00:43:23;1.67;;;1.30;;
19105;SDS011;9685;54.338;18.672;2023-08-31T00:45:50;1.57;;;1.40;;
19105;SDS011;9685;54.338;18.672;2023-08-31T00:48:19;2.70;;;1.40;;
19105;SDS011;9685;54.338;18.672;2023-08-31T00:50:46;1.77;;;1.50;;
19105;SDS011;9685;54.338;18.672;2023-08-31T00:53:16;1.63;;;1.47;;
19105;SDS011;9685;54.338;18.672;2023-08-31T00:55:43;1.87;;;1.50;;
19105;SDS011;9685;54.338;18.672;2023-08-31T00:58:11;1.53;;;1.43;;
19105;SDS011;9685;54.338;18.672;2023-08-31T01:00:40;1.60;;;1.50;;
19105;SDS011;9685;54.338;18.672;2023-08-31T01:03:16;1.60;;;1.50;;
19105;SDS011;9685;54.338;18.672;2023-08-31T01:05:50;2.20;;;1.57;;
19105;SDS011;9685;54.338;18.672;2023-08-31T01:08:26;2.10;;;1.33;;
19105;SDS011;9685;54.338;18.672;2023-08-31T01:11:02;1.93;;;1.60;;
19105;SDS011;9685;54.338;18.672;2023-08-31T01:13:38;1.60;;;1.50;;
19105;SDS011;9685;54.338;18.672;2023-08-31T01:16:08;1.83;;;1.70;;
19105;SDS011;9685;54.338;18.672;2023-08-31T01:18:35;1.77;;;1.67;;
19105;SDS011;9685;54.338;18.672;2023-08-31T01:21:06;2.23;;;1.93;;
19105;SDS011;9685;54.338;18.672;2023-08-31T01:23:44;2.03;;;1.70;;
19105;SDS011;9685;54.338;18.672;2023-08-31T01:26:18;1.70;;;1.60;;
19105;SDS011;9685;54.338;18.672;2023-08-31T01:28:46;1.80;;;1.70;;
19105;SDS011;9685;54.338;18.672;2023-08-31T01:31:13;2.47;;;1.67;;
19105;SDS011;9685;54.338;18.672;2023-08-31T01:33:40;1.40;;;1.30;;
19105;SDS011;9685;54.338;18.672;2023-08-31T01:36:08;1.70;;;1.60;;
19105;SDS011;9685;54.338;18.672;2023-08-31T01:38:39;2.07;;;1.43;;
19105;SDS011;9685;54.338;18.672;2023-08-31T01:41:12;1.67;;;1.40;;
19105;SDS011;9685;54.338;18.672;2023-08-31T01:43:43;2.40;;;1.60;;
19105;SDS011;9685;54.338;18.672;2023-08-31T01:46:12;2.10;;;1.60;;
19105;SDS011;9685;54.338;18.672;2023-08-31T01:48:40;2.33;;;1.70;;
19105;SDS011;9685;54.338;18.672;2023-08-31T01:51:07;1.70;;;1.60;;
19105;SDS011;9685;54.338;18.672;2023-08-31T01:53:34;1.80;;;1.70;;
19105;SDS011;9685;54.338;18.672;2023-08-31T01:56:01;2.13;;;1.70;;
19105;SDS011;9685;54.338;18.672;2023-08-31T01:58:31;2.07;;;1.87;;
19105;SDS011;9685;54.338;18.672;2023-08-31T02:00:58;2.03;;;1.93;;
19105;SDS011;9685;54.338;18.672;2023-08-31T02:03:25;2.00;;;1.90;;
19105;SDS011;9685;54.338;18.672;2023-08-31T02:05:52;2.13;;;1.80;;
19105;SDS011;9685;54.338;18.672;2023-08-31T02:08:19;3.27;;;2.10;;
19105;SDS011;9685;54.338;18.672;2023-08-31T02:10:46;2.50;;;1.93;;
19105;SDS011;9685;54.338;18.672;2023-08-31T02:13:13;2.00;;;1.80;;
19105;SDS011;9685;54.338;18.672;2023-08-31T02:15:42;2.13;;;1.87;;
19105;SDS011;9685;54.338;18.672;2023-08-31T02:18:09;2.20;;;2.00;;
19105;SDS011;9685;54.338;18.672;2023-08-31T02:20:36;4.13;;;1.80;;
19105;SDS011;9685;54.338;18.672;2023-08-31T02:23:04;1.97;;;1.87;;
19105;SDS011;9685;54.338;18.672;2023-08-31T02:25:31;3.10;;;1.90;;
19105;SDS011;9685;54.338;18.672;2023-08-31T02:27:58;2.00;;;1.90;;
19105;SDS011;9685;54.338;18.672;2023-08-31T02:30:25;3.83;;;1.90;;
19105;SDS011;9685;54.338;18.672;2023-08-31T02:32:53;4.47;;;2.43;;
19105;SDS011;9685;54.338;18.672;2023-08-31T02:35:20;2.30;;;2.10;;
19105;SDS011;9685;54.338;18.672;2023-08-31T02:37:47;2.67;;;2.20;;
19105;SDS011;9685;54.338;18.672;2023-08-31T02:40:14;3.97;;;2.43;;
19105;SDS011;9685;54.338;18.672;2023-08-31T02:42:42;2.57;;;2.37;;
19105;SDS011;9685;54.338;18.672;2023-08-31T02:45:09;3.37;;;2.10;;
19105;SDS011;9685;54.338;18.672;2023-08-31T02:47:36;2.70;;;2.20;;
19105;SDS011;9685;54.338;18.672;2023-08-31T02:50:05;2.43;;;2.10;;
19105;SDS011;9685;54.338;18.672;2023-08-31T02:52:33;2.70;;;2.50;;
19105;SDS011;9685;54.338;18.672;2023-08-31T02:55:00;2.47;;;2.23;;
19105;SDS011;9685;54.338;18.672;2023-08-31T02:57:27;3.10;;;2.50;;
19105;SDS011;9685;54.338;18.672;2023-08-31T02:59:55;3.80;;;2.70;;
19105;SDS011;9685;54.338;18.672;2023-08-31T03:02:22;3.37;;;2.50;;
19105;SDS011;9685;54.338;18.672;2023-08-31T03:04:49;2.90;;;2.10;;
19105;SDS011;9685;54.338;18.672;2023-08-31T03:07:18;2.43;;;1.97;;
19105;SDS011;9685;54.338;18.672;2023-08-31T03:09:48;2.77;;;2.20;;
19105;SDS011;9685;54.338;18.672;2023-08-31T03:12:15;3.27;;;1.70;;
19105;SDS011;9685;54.338;18.672;2023-08-31T03:14:43;2.90;;;1.87;;
19105;SDS011;9685;54.338;18.672;2023-08-31T03:17:10;2.03;;;1.80;;
19105;SDS011;9685;54.338;18.672;2023-08-31T03:19:37;1.80;;;1.70;;
19105;SDS011;9685;54.338;18.672;2023-08-31T03:22:03;1.80;;;1.53;;
19105;SDS011;9685;54.338;18.672;2023-08-31T03:24:32;1.67;;;1.40;;
19105;SDS011;9685;54.338;18.672;2023-08-31T03:26:59;3.03;;;1.63;;
19105;SDS011;9685;54.338;18.672;2023-08-31T03:29:26;3.10;;;1.70;;
19105;SDS011;9685;54.338;18.672;2023-08-31T03:31:54;4.50;;;1.67;;
19105;SDS011;9685;54.338;18.672;2023-08-31T03:34:21;1.60;;;1.50;;
19105;SDS011;9685;54.338;18.672;2023-08-31T03:36:48;1.60;;;1.50;;
19105;SDS011;9685;54.338;18.672;2023-08-31T03:39:15;1.47;;;1.33;;
19105;SDS011;9685;54.338;18.672;2023-08-31T03:41:44;1.63;;;1.30;;
19105;SDS011;9685;54.338;18.672;2023-08-31T03:44:11;1.93;;;1.70;;
19105;SDS011;9685;54.338;18.672;2023-08-31T03:46:38;3.23;;;1.40;;
19105;SDS011;9685;54.338;18.672;2023-08-31T03:49:05;2.03;;;1.50;;
19105;SDS011;9685;54.338;18.672;2023-08-31T03:51:31;1.30;;;1.20;;
19105;SDS011;9685;54.338;18.672;2023-08-31T03:53:59;1.27;;;1.17;;
19105;SDS011;9685;54.338;18.672;2023-08-31T03:56:26;1.50;;;1.40;;
19105;SDS011;9685;54.338;18.672;2023-08-31T03:58:54;2.13;;;1.50;;
19105;SDS011;9685;54.338;18.672;2023-08-31T04:01:21;1.53;;;1.30;;
19105;SDS011;9685;54.338;18.672;2023-08-31T04:03:48;1.50;;;1.40;;
19105;SDS011;9685;54.338;18.672;2023-08-31T04:06:15;1.70;;;1.60;;
19105;SDS011;9685;54.338;18.672;2023-08-31T04:08:42;1.93;;;1.50;;
19105;SDS011;9685;54.338;18.672;2023-08-31T04:11:09;2.60;;;1.70;;
19105;SDS011;9685;54.338;18.672;2023-08-31T04:13:36;1.50;;;1.40;;
19105;SDS011;9685;54.338;18.672;2023-08-31T04:16:04;1.80;;;1.70;;
19105;SDS011;9685;54.338;18.672;2023-08-31T04:18:32;3.27;;;1.97;;
19105;SDS011;9685;54.338;18.672;2023-08-31T04:20:58;1.77;;;1.60;;
19105;SDS011;9685;54.338;18.672;2023-08-31T04:23:28;2.23;;;1.70;;
19105;SDS011;9685;54.338;18.672;2023-08-31T04:25:55;1.97;;;1.77;;
19105;SDS011;9685;54.338;18.672;2023-08-31T04:28:22;4.47;;;1.80;;
19105;SDS011;9685;54.338;18.672;2023-08-31T04:30:50;3.50;;;1.87;;
19105;SDS011;9685;54.338;18.672;2023-08-31T04:33:18;2.50;;;1.90;;
19105;SDS011;9685;54.338;18.672;2023-08-31T04:35:45;1.63;;;1.50;;
19105;SDS011;9685;54.338;18.672;2023-08-31T04:38:12;2.57;;;2.37;;
19105;SDS011;9685;54.338;18.672;2023-08-31T04:40:39;3.37;;;2.30;;
19105;SDS011;9685;54.338;18.672;2023-08-31T04:43:06;4.17;;;2.37;;
19105;SDS011;9685;54.338;18.672;2023-08-31T04:45:33;3.27;;;2.30;;
19105;SDS011;9685;54.338;18.672;2023-08-31T04:48:00;3.83;;;2.23;;
19105;SDS011;9685;54.338;18.672;2023-08-31T04:50:29;2.43;;;2.20;;
19105;SDS011;9685;54.338;18.672;2023-08-31T04:52:56;4.07;;;2.60;;
19105;SDS011;9685;54.338;18.672;2023-08-31T04:55:23;4.50;;;2.60;;
19105;SDS011;9685;54.338;18.672;2023-08-31T04:57:50;5.70;;;2.70;;
19105;SDS011;9685;54.338;18.672;2023-08-31T05:00:17;3.07;;;2.27;;
19105;SDS011;9685;54.338;18.672;2023-08-31T05:02:45;5.20;;;2.83;;
19105;SDS011;9685;54.338;18.672;2023-08-31T05:05:12;3.33;;;2.50;;
19105;SDS011;9685;54.338;18.672;2023-08-31T05:07:40;2.93;;;2.43;;
19105;SDS011;9685;54.338;18.672;2023-08-31T05:10:08;3.90;;;2.53;;
19105;SDS011;9685;54.338;18.672;2023-08-31T05:12:36;3.67;;;2.20;;
19105;SDS011;9685;54.338;18.672;2023-08-31T05:15:03;2.63;;;2.43;;
19105;SDS011;9685;54.338;18.672;2023-08-31T05:17:31;5.03;;;2.30;;
19105;SDS011;9685;54.338;18.672;2023-08-31T05:19:59;4.30;;;2.40;;
19105;SDS011;9685;54.338;18.672;2023-08-31T05:22:26;3.70;;;2.40;;
19105;SDS011;9685;54.338;18.672;2023-08-31T05:24:54;2.90;;;2.60;;
19105;SDS011;9685;54.338;18.672;2023-08-31T05:27:21;4.47;;;2.30;;
19105;SDS011;9685;54.338;18.672;2023-08-31T05:29:48;3.73;;;2.10;;
19105;SDS011;9685;54.338;18.672;2023-08-31T05:32:15;3.30;;;2.37;;
19105;SDS011;9685;54.338;18.672;2023-08-31T05:34:42;2.60;;;2.30;;
19105;SDS011;9685;54.338;18.672;2023-08-31T05:37:09;3.43;;;1.93;;
19105;SDS011;9685;54.338;18.672;2023-08-31T05:39:37;3.07;;;2.20;;
19105;SDS011;9685;54.338;18.672;2023-08-31T05:42:05;2.83;;;1.90;;
19105;SDS011;9685;54.338;18.672;2023-08-31T05:44:32;4.63;;;2.17;;
19105;SDS011;9685;54.338;18.672;2023-08-31T05:46:59;5.53;;;2.00;;
19105;SDS011;9685;54.338;18.672;2023-08-31T05:49:26;4.60;;;2.33;;
19105;SDS011;9685;54.338;18.672;2023-08-31T05:51:54;3.17;;;2.20;;
19105;SDS011;9685;54.338;18.672;2023-08-31T05:54:21;3.17;;;2.17;;
19105;SDS011;9685;54.338;18.672;2023-08-31T05:56:48;3.40;;;2.60;;
19105;SDS011;9685;54.338;18.672;2023-08-31T05:59:16;3.07;;;2.20;;
19105;SDS011;9685;54.338;18.672;2023-08-31T06:01:43;3.63;;;2.00;;
19105;SDS011;9685;54.338;18.672;2023-08-31T06:04:10;4.63;;;2.23;;
19105;SDS011;9685;54.338;18.672;2023-08-31T06:06:37;6.20;;;2.37;;
19105;SDS011;9685;54.338;18.672;2023-08-31T06:09:05;2.70;;;2.20;;
19105;SDS011;9685;54.338;18.672;2023-08-31T06:11:32;2.50;;;2.30;;
19105;SDS011;9685;54.338;18.672;2023-08-31T06:14:00;3.00;;;2.50;;
19105;SDS011;9685;54.338;18.672;2023-08-31T06:16:28;2.60;;;2.40;;
19105;SDS011;9685;54.338;18.672;2023-08-31T06:18:55;4.37;;;2.03;;
19105;SDS011;9685;54.338;18.672;2023-08-31T06:21:22;2.90;;;2.30;;
19105;SDS011;9685;54.338;18.672;2023-08-31T06:23:49;2.60;;;2.40;;
19105;SDS011;9685;54.338;18.672;2023-08-31T06:26:15;2.80;;;2.17;;
19105;SDS011;9685;54.338;18.672;2023-08-31T06:28:42;3.73;;;2.50;;
19105;SDS011;9685;54.338;18.672;2023-08-31T06:31:09;3.77;;;2.10;;
19105;SDS011;9685;54.338;18.672;2023-08-31T06:33:38;4.00;;;2.40;;
19105;SDS011;9685;54.338;18.672;2023-08-31T06:36:04;2.93;;;2.10;;
19105;SDS011;9685;54.338;18.672;2023-08-31T06:38:31;6.43;;;2.50;;
19105;SDS011;9685;54.338;18.672;2023-08-31T06:41:00;2.80;;;2.17;;
19105;SDS011;9685;54.338;18.672;2023-08-31T06:43:28;4.53;;;2.20;;
19105;SDS011;9685;54.338;18.672;2023-08-31T06:45:55;3.10;;;2.13;;
19105;SDS011;9685;54.338;18.672;2023-08-31T06:48:22;2.23;;;1.77;;
19105;SDS011;9685;54.338;18.672;2023-08-31T06:50:50;3.93;;;2.47;;
19105;SDS011;9685;54.338;18.672;2023-08-31T06:53:17;6.37;;;2.13;;
19105;SDS011;9685;54.338;18.672;2023-08-31T06:55:44;4.07;;;2.07;;
19105;SDS011;9685;54.338;18.672;2023-08-31T06:58:11;5.13;;;2.20;;
19105;SDS011;9685;54.338;18.672;2023-08-31T07:00:38;3.97;;;2.30;;
19105;SDS011;9685;54.338;18.672;2023-08-31T07:03:05;4.93;;;2.13;;
19105;SDS011;9685;54.338;18.672;2023-08-31T07:05:33;3.97;;;2.37;;
19105;SDS011;9685;54.338;18.672;2023-08-31T07:08:03;4.23;;;2.33;;
19105;SDS011;9685;54.338;18.672;2023-08-31T07:10:30;4.17;;;2.50;;
19105;SDS011;9685;54.338;18.672;2023-08-31T07:12:57;3.23;;;2.50;;
19105;SDS011;9685;54.338;18.672;2023-08-31T07:15:24;4.97;;;2.70;;
19105;SDS011;9685;54.338;18.672;2023-08-31T07:17:51;7.97;;;2.50;;
19105;SDS011;9685;54.338;18.672;2023-08-31T07:20:18;4.57;;;2.40;;
19105;SDS011;9685;54.338;18.672;2023-08-31T07:22:45;5.17;;;2.50;;
19105;SDS011;9685;54.338;18.672;2023-08-31T07:25:13;5.67;;;2.60;;
19105;SDS011;9685;54.338;18.672;2023-08-31T07:27:41;4.03;;;2.40;;
19105;SDS011;9685;54.338;18.672;2023-08-31T07:30:08;4.23;;;3.00;;
19105;SDS011;9685;54.338;18.672;2023-08-31T07:32:36;3.80;;;2.40;;
19105;SDS011;9685;54.338;18.672;2023-08-31T07:35:03;5.80;;;3.13;;
19105;SDS011;9685;54.338;18.672;2023-08-31T07:37:31;6.53;;;2.57;;
19105;SDS011;9685;54.338;18.672;2023-08-31T07:39:58;7.73;;;2.30;;
19105;SDS011;9685;54.338;18.672;2023-08-31T07:42:26;6.33;;;2.60;;
19105;SDS011;9685;54.338;18.672;2023-08-31T07:44:54;4.10;;;2.53;;
19105;SDS011;9685;54.338;18.672;2023-08-31T07:47:21;5.23;;;2.80;;
19105;SDS011;9685;54.338;18.672;2023-08-31T07:49:48;5.33;;;2.30;;
19105;SDS011;9685;54.338;18.672;2023-08-31T07:52:15;6.07;;;2.77;;
19105;SDS011;9685;54.338;18.672;2023-08-31T07:54:42;3.83;;;2.30;;
19105;SDS011;9685;54.338;18.672;2023-08-31T07:57:09;5.50;;;3.17;;
19105;SDS011;9685;54.338;18.672;2023-08-31T07:59:37;7.53;;;2.77;;
19105;SDS011;9685;54.338;18.672;2023-08-31T08:02:04;5.77;;;2.60;;
19105;SDS011;9685;54.338;18.672;2023-08-31T08:04:31;6.43;;;2.67;;
19105;SDS011;9685;54.338;18.672;2023-08-31T08:06:58;3.93;;;2.70;;
19105;SDS011;9685;54.338;18.672;2023-08-31T08:09:25;5.57;;;2.43;;
19105;SDS011;9685;54.338;18.672;2023-08-31T08:11:53;2.43;;;2.23;;
19105;SDS011;9685;54.338;18.672;2023-08-31T08:14:20;3.77;;;2.60;;
19105;SDS011;9685;54.338;18.672;2023-08-31T08:16:49;7.70;;;2.83;;
19105;SDS011;9685;54.338;18.672;2023-08-31T08:19:20;6.50;;;2.70;;
19105;SDS011;9685;54.338;18.672;2023-08-31T08:21:48;4.23;;;2.30;;
19105;SDS011;9685;54.338;18.672;2023-08-31T08:24:15;7.00;;;2.70;;
19105;SDS011;9685;54.338;18.672;2023-08-31T08:26:42;4.83;;;2.37;;
19105;SDS011;9685;54.338;18.672;2023-08-31T08:29:09;4.40;;;2.73;;
19105;SDS011;9685;54.338;18.672;2023-08-31T08:31:36;6.43;;;2.80;;
19105;SDS011;9685;54.338;18.672;2023-08-31T08:34:04;4.33;;;2.70;;
19105;SDS011;9685;54.338;18.672;2023-08-31T08:36:31;3.47;;;2.07;;
19105;SDS011;9685;54.338;18.672;2023-08-31T08:38:58;3.73;;;2.00;;
19105;SDS011;9685;54.338;18.672;2023-08-31T08:41:25;3.43;;;2.17;;
19105;SDS011;9685;54.338;18.672;2023-08-31T08:43:56;3.70;;;2.20;;
19105;SDS011;9685;54.338;18.672;2023-08-31T08:46:25;3.77;;;2.03;;
19105;SDS011;9685;54.338;18.672;2023-08-31T08:48:52;2.63;;;1.90;;
19105;SDS011;9685;54.338;18.672;2023-08-31T08:51:21;4.07;;;2.17;;
19105;SDS011;9685;54.338;18.672;2023-08-31T08:53:48;5.30;;;2.30;;
19105;SDS011;9685;54.338;18.672;2023-08-31T08:56:18;3.83;;;2.03;;
19105;SDS011;9685;54.338;18.672;2023-08-31T08:58:44;3.87;;;2.20;;
19105;SDS011;9685;54.338;18.672;2023-08-31T09:01:11;5.60;;;2.40;;
19105;SDS011;9685;54.338;18.672;2023-08-31T09:03:38;3.23;;;2.07;;
19105;SDS011;9685;54.338;18.672;2023-08-31T09:06:05;2.10;;;1.80;;
19105;SDS011;9685;54.338;18.672;2023-08-31T09:08:34;5.53;;;1.80;;
19105;SDS011;9685;54.338;18.672;2023-08-31T09:11:02;4.47;;;1.90;;
19105;SDS011;9685;54.338;18.672;2023-08-31T09:13:29;2.13;;;1.93;;
19105;SDS011;9685;54.338;18.672;2023-08-31T09:15:56;3.20;;;2.03;;
19105;SDS011;9685;54.338;18.672;2023-08-31T09:18:24;3.10;;;2.17;;
19105;SDS011;9685;54.338;18.672;2023-08-31T09:20:53;3.93;;;2.00;;
19105;SDS011;9685;54.338;18.672;2023-08-31T09:23:22;3.40;;;2.00;;
19105;SDS011;9685;54.338;18.672;2023-08-31T09:25:51;3.87;;;1.93;;
19105;SDS011;9685;54.338;18.672;2023-08-31T09:28:20;3.30;;;1.90;;
19105;SDS011;9685;54.338;18.672;2023-08-31T09:30:49;3.10;;;2.20;;
19105;SDS011;9685;54.338;18.672;2023-08-31T09:33:18;5.40;;;2.27;;
19105;SDS011;9685;54.338;18.672;2023-08-31T09:35:50;8.03;;;2.47;;
19105;SDS011;9685;54.338;18.672;2023-08-31T09:38:18;5.50;;;2.03;;
19105;SDS011;9685;54.338;18.672;2023-08-31T09:40:45;5.60;;;2.30;;
19105;SDS011;9685;54.338;18.672;2023-08-31T09:43:19;5.93;;;2.60;;
19105;SDS011;9685;54.338;18.672;2023-08-31T09:45:47;3.03;;;1.80;;
19105;SDS011;9685;54.338;18.672;2023-08-31T09:48:15;5.23;;;2.30;;
19105;SDS011;9685;54.338;18.672;2023-08-31T09:50:43;3.87;;;2.23;;
19105;SDS011;9685;54.338;18.672;2023-08-31T09:53:10;4.10;;;1.90;;
19105;SDS011;9685;54.338;18.672;2023-08-31T09:55:38;3.50;;;2.00;;
19105;SDS011;9685;54.338;18.672;2023-08-31T09:58:07;4.80;;;1.80;;
19105;SDS011;9685;54.338;18.672;2023-08-31T10:00:36;4.23;;;2.00;;
19105;SDS011;9685;54.338;18.672;2023-08-31T10:03:04;3.47;;;2.00;;
19105;SDS011;9685;54.338;18.672;2023-08-31T10:05:31;4.00;;;2.00;;
19105;SDS011;9685;54.338;18.672;2023-08-31T10:07:59;4.23;;;2.47;;
19105;SDS011;9685;54.338;18.672;2023-08-31T10:10:27;3.77;;;1.93;;
19105;SDS011;9685;54.338;18.672;2023-08-31T10:12:56;2.87;;;2.00;;
19105;SDS011;9685;54.338;18.672;2023-08-31T10:15:24;3.13;;;1.70;;
19105;SDS011;9685;54.338;18.672;2023-08-31T10:17:58;2.83;;;2.03;;
19105;SDS011;9685;54.338;18.672;2023-08-31T10:20:26;2.43;;;1.87;;
19105;SDS011;9685;54.338;18.672;2023-08-31T10:22:56;4.90;;;1.83;;
19105;SDS011;9685;54.338;18.672;2023-08-31T10:25:23;2.40;;;1.73;;
19105;SDS011;9685;54.338;18.672;2023-08-31T10:27:51;3.40;;;1.97;;
19105;SDS011;9685;54.338;18.672;2023-08-31T10:30:25;4.07;;;2.07;;
19105;SDS011;9685;54.338;18.672;2023-08-31T10:35:49;3.93;;;2.47;;
19105;SDS011;9685;54.338;18.672;2023-08-31T10:38:23;2.63;;;1.77;;
19105;SDS011;9685;54.338;18.672;2023-08-31T10:41:02;2.25;;;1.85;;
19105;SDS011;9685;54.338;18.672;2023-08-31T10:43:44;3.17;;;2.17;;
19105;SDS011;9685;54.338;18.672;2023-08-31T10:46:24;3.47;;;2.03;;
19105;SDS011;9685;54.338;18.672;2023-08-31T10:48:57;2.15;;;1.95;;
19105;SDS011;9685;54.338;18.672;2023-08-31T10:51:26;11.85;;;2.45;;
19105;SDS011;9685;54.338;18.672;2023-08-31T10:54:05;3.42;;;1.88;;
19105;SDS011;9685;54.338;18.672;2023-08-31T10:56:38;3.92;;;1.70;;
19105;SDS011;9685;54.338;18.672;2023-08-31T10:59:20;5.07;;;2.30;;
19105;SDS011;9685;54.338;18.672;2023-08-31T11:01:51;4.40;;;1.80;;
19105;SDS011;9685;54.338;18.672;2023-08-31T11:04:20;2.58;;;1.48;;
19105;SDS011;9685;54.338;18.672;2023-08-31T11:06:48;2.90;;;2.10;;
19105;SDS011;9685;54.338;18.672;2023-08-31T11:09:19;7.00;;;2.03;;
19105;SDS011;9685;54.338;18.672;2023-08-31T11:11:46;5.38;;;2.22;;
19105;SDS011;9685;54.338;18.672;2023-08-31T11:14:14;1.95;;;1.75;;
19105;SDS011;9685;54.338;18.672;2023-08-31T11:16:42;3.58;;;2.00;;
19105;SDS011;9685;54.338;18.672;2023-08-31T11:19:10;2.60;;;1.50;;
19105;SDS011;9685;54.338;18.672;2023-08-31T11:21:38;6.63;;;1.92;;
19105;SDS011;9685;54.338;18.672;2023-08-31T11:24:07;2.08;;;1.88;;
19105;SDS011;9685;54.338;18.672;2023-08-31T11:26:34;4.47;;;1.77;;
19105;SDS011;9685;54.338;18.672;2023-08-31T11:29:01;3.25;;;1.77;;
19105;SDS011;9685;54.338;18.672;2023-08-31T11:31:32;3.03;;;2.10;;
19105;SDS011;9685;54.338;18.672;2023-08-31T11:34:05;3.22;;;1.92;;
19105;SDS011;9685;54.338;18.672;2023-08-31T11:36:32;3.75;;;1.90;;
19105;SDS011;9685;54.338;18.672;2023-08-31T11:39:00;2.13;;;1.95;;
19105;SDS011;9685;54.338;18.672;2023-08-31T11:41:30;4.75;;;1.98;;
19105;SDS011;9685;54.338;18.672;2023-08-31T11:43:58;2.08;;;1.90;;
19105;SDS011;9685;54.338;18.672;2023-08-31T11:46:25;4.65;;;2.15;;
19105;SDS011;9685;54.338;18.672;2023-08-31T11:48:53;3.22;;;2.15;;
19105;SDS011;9685;54.338;18.672;2023-08-31T11:51:20;6.75;;;2.50;;
19105;SDS011;9685;54.338;18.672;2023-08-31T11:53:48;3.17;;;2.25;;
19105;SDS011;9685;54.338;18.672;2023-08-31T11:56:17;2.45;;;1.88;;
19105;SDS011;9685;54.338;18.672;2023-08-31T11:58:44;2.47;;;1.92;;
19105;SDS011;9685;54.338;18.672;2023-08-31T12:01:17;2.88;;;2.10;;
19105;SDS011;9685;54.338;18.672;2023-08-31T12:03:46;2.65;;;2.20;;
19105;SDS011;9685;54.338;18.672;2023-08-31T12:06:14;3.03;;;2.30;;
19105;SDS011;9685;54.338;18.672;2023-08-31T12:08:43;5.88;;;1.92;;
19105;SDS011;9685;54.338;18.672;2023-08-31T12:11:10;4.60;;;2.00;;
19105;SDS011;9685;54.338;18.672;2023-08-31T12:13:39;2.28;;;1.83;;
19105;SDS011;9685;54.338;18.672;2023-08-31T12:16:11;6.72;;;2.42;;
19105;SDS011;9685;54.338;18.672;2023-08-31T12:18:39;3.38;;;2.25;;
19105;SDS011;9685;54.338;18.672;2023-08-31T12:21:06;4.72;;;2.35;;
19105;SDS011;9685;54.338;18.672;2023-08-31T12:23:33;4.25;;;2.33;;
19105;SDS011;9685;54.338;18.672;2023-08-31T12:26:00;2.65;;;2.08;;
19105;SDS011;9685;54.338;18.672;2023-08-31T12:28:29;5.70;;;2.00;;
19105;SDS011;9685;54.338;18.672;2023-08-31T12:30:57;4.68;;;2.40;;
19105;SDS011;9685;54.338;18.672;2023-08-31T12:33:24;5.32;;;3.53;;
19105;SDS011;9685;54.338;18.672;2023-08-31T12:35:51;5.35;;;4.40;;
19105;SDS011;9685;54.338;18.672;2023-08-31T12:38:18;15.98;;;4.35;;
19105;SDS011;9685;54.338;18.672;2023-08-31T12:40:45;3.80;;;2.80;;
19105;SDS011;9685;54.338;18.672;2023-08-31T12:43:12;7.25;;;3.05;;
19105;SDS011;9685;54.338;18.672;2023-08-31T12:45:39;3.08;;;2.50;;
19105;SDS011;9685;54.338;18.672;2023-08-31T12:48:07;3.33;;;2.30;;
19105;SDS011;9685;54.338;18.672;2023-08-31T12:50:34;5.68;;;2.63;;
19105;SDS011;9685;54.338;18.672;2023-08-31T12:53:01;2.63;;;2.28;;
19105;SDS011;9685;54.338;18.672;2023-08-31T12:55:28;6.07;;;2.20;;
19105;SDS011;9685;54.338;18.672;2023-08-31T12:57:56;6.23;;;2.10;;
19105;SDS011;9685;54.338;18.672;2023-08-31T13:00:23;6.93;;;2.47;;
19105;SDS011;9685;54.338;18.672;2023-08-31T13:02:52;7.93;;;2.57;;
19105;SDS011;9685;54.338;18.672;2023-08-31T13:05:21;9.37;;;3.00;;
19105;SDS011;9685;54.338;18.672;2023-08-31T13:07:48;6.80;;;3.30;;
19105;SDS011;9685;54.338;18.672;2023-08-31T13:10:15;6.23;;;3.50;;
19105;SDS011;9685;54.338;18.672;2023-08-31T13:12:42;9.00;;;3.77;;
19105;SDS011;9685;54.338;18.672;2023-08-31T13:15:09;7.97;;;3.47;;
19105;SDS011;9685;54.338;18.672;2023-08-31T13:17:36;7.17;;;3.67;;
19105;SDS011;9685;54.338;18.672;2023-08-31T13:20:04;5.47;;;3.93;;
19105;SDS011;9685;54.338;18.672;2023-08-31T13:22:34;8.67;;;4.70;;
19105;SDS011;9685;54.338;18.672;2023-08-31T13:25:01;8.93;;;4.50;;
19105;SDS011;9685;54.338;18.672;2023-08-31T13:27:29;9.60;;;4.23;;
19105;SDS011;9685;54.338;18.672;2023-08-31T13:29:58;7.53;;;4.47;;
19105;SDS011;9685;54.338;18.672;2023-08-31T13:32:25;7.40;;;4.07;;
19105;SDS011;9685;54.338;18.672;2023-08-31T13:34:52;6.97;;;5.07;;
19105;SDS011;9685;54.338;18.672;2023-08-31T13:37:19;10.97;;;5.67;;
19105;SDS011;9685;54.338;18.672;2023-08-31T13:39:49;7.03;;;4.87;;
19105;SDS011;9685;54.338;18.672;2023-08-31T13:42:17;10.53;;;4.60;;
19105;SDS011;9685;54.338;18.672;2023-08-31T13:44:44;6.30;;;4.57;;
19105;SDS011;9685;54.338;18.672;2023-08-31T13:47:11;8.20;;;4.37;;
19105;SDS011;9685;54.338;18.672;2023-08-31T13:49:38;6.40;;;4.47;;
19105;SDS011;9685;54.338;18.672;2023-08-31T13:52:05;5.80;;;4.40;;
19105;SDS011;9685;54.338;18.672;2023-08-31T13:54:33;9.20;;;5.40;;
19105;SDS011;9685;54.338;18.672;2023-08-31T13:57:01;5.97;;;5.17;;
19105;SDS011;9685;54.338;18.672;2023-08-31T13:59:29;10.27;;;4.70;;
19105;SDS011;9685;54.338;18.672;2023-08-31T14:01:56;8.43;;;5.17;;
19105;SDS011;9685;54.338;18.672;2023-08-31T14:04:24;7.60;;;5.53;;
19105;SDS011;9685;54.338;18.672;2023-08-31T14:06:52;8.50;;;6.20;;
19105;SDS011;9685;54.338;18.672;2023-08-31T14:09:19;7.63;;;5.50;;
19105;SDS011;9685;54.338;18.672;2023-08-31T14:11:47;11.27;;;7.60;;
19105;SDS011;9685;54.338;18.672;2023-08-31T14:14:15;7.70;;;5.63;;
19105;SDS011;9685;54.338;18.672;2023-08-31T14:16:42;8.80;;;6.70;;
19105;SDS011;9685;54.338;18.672;2023-08-31T14:19:10;6.83;;;6.00;;
19105;SDS011;9685;54.338;18.672;2023-08-31T14:21:37;11.23;;;6.50;;
19105;SDS011;9685;54.338;18.672;2023-08-31T14:24:04;10.60;;;7.33;;
19105;SDS011;9685;54.338;18.672;2023-08-31T14:26:32;10.23;;;7.07;;
19105;SDS011;9685;54.338;18.672;2023-08-31T14:28:59;7.67;;;6.90;;
19105;SDS011;9685;54.338;18.672;2023-08-31T14:31:27;9.67;;;7.67;;
19105;SDS011;9685;54.338;18.672;2023-08-31T14:33:55;9.83;;;7.87;;
19105;SDS011;9685;54.338;18.672;2023-08-31T14:36:22;10.90;;;8.27;;
19105;SDS011;9685;54.338;18.672;2023-08-31T14:38:49;8.90;;;8.00;;
19105;SDS011;9685;54.338;18.672;2023-08-31T14:41:16;7.50;;;6.67;;
19105;SDS011;9685;54.338;18.672;2023-08-31T14:43:43;10.20;;;9.20;;
19105;SDS011;9685;54.338;18.672;2023-08-31T14:46:10;9.40;;;7.43;;
19105;SDS011;9685;54.338;18.672;2023-08-31T14:48:39;8.70;;;7.03;;
19105;SDS011;9685;54.338;18.672;2023-08-31T14:51:06;8.03;;;7.23;;
19105;SDS011;9685;54.338;18.672;2023-08-31T14:53:34;7.47;;;6.77;;
19105;SDS011;9685;54.338;18.672;2023-08-31T14:56:01;8.50;;;7.70;;